sensor_id;sensor_type;location;lat;lon;timestamp;temperature;humidity
66019;HTU21D;52787;51.084;5.816;2023-04-15T00:01:28;11.09;60.41
66019;HTU21D;52787;51.084;5.816;2023-04-15T00:03:54;11.03;60.42
66019;HTU21D;52787;51.084;5.816;2023-04-15T00:06:21;10.95;60.62
66019;HTU21D;52787;51.084;5.816;2023-04-15T00:08:48;10.85;60.58
66019;HTU21D;52787;51.084;5.816;2023-04-15T00:11:16;10.78;60.54
66019;HTU21D;52787;51.084;5.816;2023-04-15T00:13:43;10.79;60.40
66019;HTU21D;52787;51.084;5.816;2023-04-15T00:16:09;10.79;60.47
66019;HTU21D;52787;51.084;5.816;2023-04-15T00:18:36;10.74;60.86
66019;HTU21D;52787;51.084;5.816;2023-04-15T00:21:02;10.71;61.49
66019;HTU21D;52787;51.084;5.816;2023-04-15T00:23:29;10.72;61.58
66019;HTU21D;52787;51.084;5.816;2023-04-15T00:25:56;10.71;61.68
66019;HTU21D;52787;51.084;5.816;2023-04-15T00:28:22;10.68;61.95
66019;HTU21D;52787;51.084;5.816;2023-04-15T00:30:47;10.66;62.18
66019;HTU21D;52787;51.084;5.816;2023-04-15T00:33:14;10.69;62.15
66019;HTU21D;52787;51.084;5.816;2023-04-15T00:35:41;10.67;61.86
66019;HTU21D;52787;51.084;5.816;2023-04-15T00:38:07;10.66;61.67
66019;HTU21D;52787;51.084;5.816;2023-04-15T00:40:33;10.69;61.59
66019;HTU21D;52787;51.084;5.816;2023-04-15T00:43:00;10.67;61.57
66019;HTU21D;52787;51.084;5.816;2023-04-15T00:45:27;10.70;61.53
66019;HTU21D;52787;51.084;5.816;2023-04-15T00:47:53;10.74;61.24
66019;HTU21D;52787;51.084;5.816;2023-04-15T00:50:20;10.74;61.18
66019;HTU21D;52787;51.084;5.816;2023-04-15T00:52:46;10.74;61.34
66019;HTU21D;52787;51.084;5.816;2023-04-15T00:55:12;10.70;61.34
66019;HTU21D;52787;51.084;5.816;2023-04-15T00:57:38;10.65;61.50
66019;HTU21D;52787;51.084;5.816;2023-04-15T01:00:05;10.67;61.58
66019;HTU21D;52787;51.084;5.816;2023-04-15T01:02:36;10.68;61.38
66019;HTU21D;52787;51.084;5.816;2023-04-15T01:05:03;10.65;61.73
66019;HTU21D;52787;51.084;5.816;2023-04-15T01:07:30;10.58;61.99
66019;HTU21D;52787;51.084;5.816;2023-04-15T01:09:56;10.51;61.95
66019;HTU21D;52787;51.084;5.816;2023-04-15T01:12:24;10.43;61.91
66019;HTU21D;52787;51.084;5.816;2023-04-15T01:14:52;10.39;62.18
66019;HTU21D;52787;51.084;5.816;2023-04-15T01:17:19;10.35;62.78
66019;HTU21D;52787;51.084;5.816;2023-04-15T01:19:45;10.31;62.76
66019;HTU21D;52787;51.084;5.816;2023-04-15T01:22:11;10.27;62.92
66019;HTU21D;52787;51.084;5.816;2023-04-15T01:24:37;10.25;62.82
66019;HTU21D;52787;51.084;5.816;2023-04-15T01:27:04;10.23;63.10
66019;HTU21D;52787;51.084;5.816;2023-04-15T01:29:31;10.20;63.50
66019;HTU21D;52787;51.084;5.816;2023-04-15T01:31:59;10.21;63.65
66019;HTU21D;52787;51.084;5.816;2023-04-15T01:34:25;10.26;63.40
66019;HTU21D;52787;51.084;5.816;2023-04-15T01:36:51;10.24;63.21
66019;HTU21D;52787;51.084;5.816;2023-04-15T01:39:17;10.21;63.52
66019;HTU21D;52787;51.084;5.816;2023-04-15T01:41:43;10.16;63.40
66019;HTU21D;52787;51.084;5.816;2023-04-15T01:44:09;10.19;63.14
66019;HTU21D;52787;51.084;5.816;2023-04-15T01:46:35;10.15;62.84
66019;HTU21D;52787;51.084;5.816;2023-04-15T01:49:01;10.09;62.98
66019;HTU21D;52787;51.084;5.816;2023-04-15T01:51:27;10.00;63.27
66019;HTU21D;52787;51.084;5.816;2023-04-15T01:53:53;9.99;63.69
66019;HTU21D;52787;51.084;5.816;2023-04-15T01:56:21;10.06;63.95
66019;HTU21D;52787;51.084;5.816;2023-04-15T01:58:48;10.13;64.19
66019;HTU21D;52787;51.084;5.816;2023-04-15T02:01:14;10.16;64.37
66019;HTU21D;52787;51.084;5.816;2023-04-15T02:03:41;10.16;64.32
66019;HTU21D;52787;51.084;5.816;2023-04-15T02:06:07;10.08;64.57
66019;HTU21D;52787;51.084;5.816;2023-04-15T02:08:32;10.03;64.79
66019;HTU21D;52787;51.084;5.816;2023-04-15T02:10:58;9.99;65.26
66019;HTU21D;52787;51.084;5.816;2023-04-15T02:13:25;10.04;65.41
66019;HTU21D;52787;51.084;5.816;2023-04-15T02:15:51;10.09;65.27
66019;HTU21D;52787;51.084;5.816;2023-04-15T02:18:17;10.11;64.92
66019;HTU21D;52787;51.084;5.816;2023-04-15T02:20:43;10.10;64.89
66019;HTU21D;52787;51.084;5.816;2023-04-15T02:23:09;10.09;64.76
66019;HTU21D;52787;51.084;5.816;2023-04-15T02:25:36;10.09;64.36
66019;HTU21D;52787;51.084;5.816;2023-04-15T02:28:04;10.05;64.11
66019;HTU21D;52787;51.084;5.816;2023-04-15T02:30:31;10.00;64.21
66019;HTU21D;52787;51.084;5.816;2023-04-15T02:32:59;9.97;64.30
66019;HTU21D;52787;51.084;5.816;2023-04-15T02:35:25;9.86;64.76
66019;HTU21D;52787;51.084;5.816;2023-04-15T02:37:51;9.81;64.53
66019;HTU21D;52787;51.084;5.816;2023-04-15T02:40:17;9.77;64.46
66019;HTU21D;52787;51.084;5.816;2023-04-15T02:42:43;9.72;64.43
66019;HTU21D;52787;51.084;5.816;2023-04-15T02:45:09;9.68;64.40
66019;HTU21D;52787;51.084;5.816;2023-04-15T02:47:37;9.65;64.58
66019;HTU21D;52787;51.084;5.816;2023-04-15T02:50:11;9.63;64.82
66019;HTU21D;52787;51.084;5.816;2023-04-15T02:52:39;9.60;64.94
66019;HTU21D;52787;51.084;5.816;2023-04-15T02:55:06;9.61;64.97
66019;HTU21D;52787;51.084;5.816;2023-04-15T02:57:32;9.60;65.26
66019;HTU21D;52787;51.084;5.816;2023-04-15T03:00:02;9.61;64.96
66019;HTU21D;52787;51.084;5.816;2023-04-15T03:02:36;9.54;65.08
66019;HTU21D;52787;51.084;5.816;2023-04-15T03:05:03;9.53;65.56
66019;HTU21D;52787;51.084;5.816;2023-04-15T03:07:30;9.50;65.57
66019;HTU21D;52787;51.084;5.816;2023-04-15T03:09:56;9.46;65.63
66019;HTU21D;52787;51.084;5.816;2023-04-15T03:12:22;9.44;65.65
66019;HTU21D;52787;51.084;5.816;2023-04-15T03:14:48;9.41;65.65
66019;HTU21D;52787;51.084;5.816;2023-04-15T03:17:13;9.42;65.86
66019;HTU21D;52787;51.084;5.816;2023-04-15T03:19:40;9.39;65.96
66019;HTU21D;52787;51.084;5.816;2023-04-15T03:22:05;9.36;66.01
66019;HTU21D;52787;51.084;5.816;2023-04-15T03:24:31;9.32;66.09
66019;HTU21D;52787;51.084;5.816;2023-04-15T03:26:57;9.25;66.42
66019;HTU21D;52787;51.084;5.816;2023-04-15T03:29:23;9.22;66.49
66019;HTU21D;52787;51.084;5.816;2023-04-15T03:31:49;9.18;66.59
66019;HTU21D;52787;51.084;5.816;2023-04-15T03:34:15;9.17;66.75
66019;HTU21D;52787;51.084;5.816;2023-04-15T03:36:40;9.15;66.57
66019;HTU21D;52787;51.084;5.816;2023-04-15T03:39:06;9.10;66.97
66019;HTU21D;52787;51.084;5.816;2023-04-15T03:41:32;9.10;67.13
66019;HTU21D;52787;51.084;5.816;2023-04-15T03:43:58;9.07;67.38
66019;HTU21D;52787;51.084;5.816;2023-04-15T03:46:23;9.05;67.68
66019;HTU21D;52787;51.084;5.816;2023-04-15T03:48:49;9.06;67.85
66019;HTU21D;52787;51.084;5.816;2023-04-15T03:51:15;9.04;68.01
66019;HTU21D;52787;51.084;5.816;2023-04-15T03:53:41;9.08;68.14
66019;HTU21D;52787;51.084;5.816;2023-04-15T03:56:07;9.08;68.14
66019;HTU21D;52787;51.084;5.816;2023-04-15T03:58:33;9.11;68.17
66019;HTU21D;52787;51.084;5.816;2023-04-15T04:00:58;9.18;67.93
66019;HTU21D;52787;51.084;5.816;2023-04-15T04:03:24;9.18;68.02
66019;HTU21D;52787;51.084;5.816;2023-04-15T04:05:51;9.14;68.33
66019;HTU21D;52787;51.084;5.816;2023-04-15T04:08:17;9.12;68.56
66019;HTU21D;52787;51.084;5.816;2023-04-15T04:10:43;9.16;68.52
66019;HTU21D;52787;51.084;5.816;2023-04-15T04:13:09;9.23;68.43
66019;HTU21D;52787;51.084;5.816;2023-04-15T04:15:35;9.27;68.22
66019;HTU21D;52787;51.084;5.816;2023-04-15T04:18:01;9.25;68.36
66019;HTU21D;52787;51.084;5.816;2023-04-15T04:20:27;9.30;68.42
66019;HTU21D;52787;51.084;5.816;2023-04-15T04:22:52;9.31;68.15
66019;HTU21D;52787;51.084;5.816;2023-04-15T04:25:18;9.27;67.94
66019;HTU21D;52787;51.084;5.816;2023-04-15T04:27:44;9.18;68.07
66019;HTU21D;52787;51.084;5.816;2023-04-15T04:30:10;9.18;67.81
66019;HTU21D;52787;51.084;5.816;2023-04-15T04:32:36;9.15;67.79
66019;HTU21D;52787;51.084;5.816;2023-04-15T04:35:03;9.14;67.84
66019;HTU21D;52787;51.084;5.816;2023-04-15T04:37:29;9.11;67.86
66019;HTU21D;52787;51.084;5.816;2023-04-15T04:39:55;9.08;67.62
66019;HTU21D;52787;51.084;5.816;2023-04-15T04:42:21;9.06;67.79
66019;HTU21D;52787;51.084;5.816;2023-04-15T04:44:47;9.08;67.62
66019;HTU21D;52787;51.084;5.816;2023-04-15T04:47:13;9.06;67.62
66019;HTU21D;52787;51.084;5.816;2023-04-15T04:49:38;9.00;67.97
66019;HTU21D;52787;51.084;5.816;2023-04-15T04:52:05;8.98;68.30
66019;HTU21D;52787;51.084;5.816;2023-04-15T04:54:32;9.07;68.01
66019;HTU21D;52787;51.084;5.816;2023-04-15T04:56:58;9.15;67.68
66019;HTU21D;52787;51.084;5.816;2023-04-15T04:59:23;9.17;67.10
66019;HTU21D;52787;51.084;5.816;2023-04-15T05:01:49;9.19;66.72
66019;HTU21D;52787;51.084;5.816;2023-04-15T05:04:15;9.17;66.58
66019;HTU21D;52787;51.084;5.816;2023-04-15T05:06:41;9.11;66.52
66019;HTU21D;52787;51.084;5.816;2023-04-15T05:09:07;9.08;66.66
66019;HTU21D;52787;51.084;5.816;2023-04-15T05:11:32;9.08;66.68
66019;HTU21D;52787;51.084;5.816;2023-04-15T05:13:58;9.12;66.44
66019;HTU21D;52787;51.084;5.816;2023-04-15T05:16:26;9.11;66.29
66019;HTU21D;52787;51.084;5.816;2023-04-15T05:18:52;9.05;66.47
66019;HTU21D;52787;51.084;5.816;2023-04-15T05:21:19;9.03;66.53
66019;HTU21D;52787;51.084;5.816;2023-04-15T05:23:45;9.00;66.69
66019;HTU21D;52787;51.084;5.816;2023-04-15T05:26:11;9.00;67.00
66019;HTU21D;52787;51.084;5.816;2023-04-15T05:28:37;9.04;66.77
66019;HTU21D;52787;51.084;5.816;2023-04-15T05:31:03;9.07;66.69
66019;HTU21D;52787;51.084;5.816;2023-04-15T05:33:28;9.04;66.86
66019;HTU21D;52787;51.084;5.816;2023-04-15T05:35:54;9.03;66.98
66019;HTU21D;52787;51.084;5.816;2023-04-15T05:38:20;9.01;67.07
66019;HTU21D;52787;51.084;5.816;2023-04-15T05:40:46;9.00;67.24
66019;HTU21D;52787;51.084;5.816;2023-04-15T05:43:11;9.02;67.10
66019;HTU21D;52787;51.084;5.816;2023-04-15T05:45:37;9.03;67.13
66019;HTU21D;52787;51.084;5.816;2023-04-15T05:48:03;9.00;67.24
66019;HTU21D;52787;51.084;5.816;2023-04-15T05:50:29;9.02;67.31
66019;HTU21D;52787;51.084;5.816;2023-04-15T05:52:54;9.04;67.46
66019;HTU21D;52787;51.084;5.816;2023-04-15T05:55:21;9.08;67.44
66019;HTU21D;52787;51.084;5.816;2023-04-15T05:57:46;9.12;67.48
66019;HTU21D;52787;51.084;5.816;2023-04-15T06:00:13;9.15;67.49
66019;HTU21D;52787;51.084;5.816;2023-04-15T06:02:39;9.18;67.69
66019;HTU21D;52787;51.084;5.816;2023-04-15T06:05:06;9.23;67.60
66019;HTU21D;52787;51.084;5.816;2023-04-15T06:07:37;9.25;67.68
66019;HTU21D;52787;51.084;5.816;2023-04-15T06:10:04;9.30;67.88
66019;HTU21D;52787;51.084;5.816;2023-04-15T06:12:31;9.35;68.13
66019;HTU21D;52787;51.084;5.816;2023-04-15T06:14:57;9.35;68.23
66019;HTU21D;52787;51.084;5.816;2023-04-15T06:17:23;9.38;68.28
66019;HTU21D;52787;51.084;5.816;2023-04-15T06:19:49;9.41;68.24
66019;HTU21D;52787;51.084;5.816;2023-04-15T06:22:20;9.41;68.32
66019;HTU21D;52787;51.084;5.816;2023-04-15T06:24:48;9.47;68.36
66019;HTU21D;52787;51.084;5.816;2023-04-15T06:27:17;9.54;68.24
66019;HTU21D;52787;51.084;5.816;2023-04-15T06:29:43;9.64;68.03
66019;HTU21D;52787;51.084;5.816;2023-04-15T06:32:09;9.68;67.81
66019;HTU21D;52787;51.084;5.816;2023-04-15T06:34:36;9.75;67.72
66019;HTU21D;52787;51.084;5.816;2023-04-15T06:37:02;9.78;67.64
66019;HTU21D;52787;51.084;5.816;2023-04-15T06:39:27;9.81;67.62
66019;HTU21D;52787;51.084;5.816;2023-04-15T06:41:53;9.86;67.75
66019;HTU21D;52787;51.084;5.816;2023-04-15T06:44:19;9.89;68.03
66019;HTU21D;52787;51.084;5.816;2023-04-15T06:46:45;9.91;68.07
66019;HTU21D;52787;51.084;5.816;2023-04-15T06:49:10;9.94;68.26
66019;HTU21D;52787;51.084;5.816;2023-04-15T06:51:36;9.98;68.50
66019;HTU21D;52787;51.084;5.816;2023-04-15T06:54:03;10.07;68.36
66019;HTU21D;52787;51.084;5.816;2023-04-15T06:56:33;10.09;68.77
66019;HTU21D;52787;51.084;5.816;2023-04-15T06:59:00;10.08;69.60
66019;HTU21D;52787;51.084;5.816;2023-04-15T07:01:25;10.08;70.45
66019;HTU21D;52787;51.084;5.816;2023-04-15T07:03:52;10.05;70.84
66019;HTU21D;52787;51.084;5.816;2023-04-15T07:06:17;10.04;71.04
66019;HTU21D;52787;51.084;5.816;2023-04-15T07:08:44;10.08;71.43
66019;HTU21D;52787;51.084;5.816;2023-04-15T07:11:09;10.14;71.57
66019;HTU21D;52787;51.084;5.816;2023-04-15T07:13:35;10.14;71.69
66019;HTU21D;52787;51.084;5.816;2023-04-15T07:16:01;10.12;72.09
66019;HTU21D;52787;51.084;5.816;2023-04-15T07:18:27;10.19;72.19
66019;HTU21D;52787;51.084;5.816;2023-04-15T07:20:52;10.23;72.19
66019;HTU21D;52787;51.084;5.816;2023-04-15T07:23:18;10.25;72.12
66019;HTU21D;52787;51.084;5.816;2023-04-15T07:25:44;10.30;72.22
66019;HTU21D;52787;51.084;5.816;2023-04-15T07:28:10;10.38;72.42
66019;HTU21D;52787;51.084;5.816;2023-04-15T07:30:35;10.46;72.40
66019;HTU21D;52787;51.084;5.816;2023-04-15T07:33:01;10.48;72.67
66019;HTU21D;52787;51.084;5.816;2023-04-15T07:35:28;10.55;72.77
66019;HTU21D;52787;51.084;5.816;2023-04-15T07:37:53;10.62;73.64
66019;HTU21D;52787;51.084;5.816;2023-04-15T07:40:19;10.72;73.66
66019;HTU21D;52787;51.084;5.816;2023-04-15T07:42:47;10.87;73.38
66019;HTU21D;52787;51.084;5.816;2023-04-15T07:45:14;11.04;72.99
66019;HTU21D;52787;51.084;5.816;2023-04-15T07:47:40;11.18;72.79
66019;HTU21D;52787;51.084;5.816;2023-04-15T07:50:08;11.25;72.67
66019;HTU21D;52787;51.084;5.816;2023-04-15T07:52:35;11.36;72.17
66019;HTU21D;52787;51.084;5.816;2023-04-15T07:55:05;11.47;71.85
66019;HTU21D;52787;51.084;5.816;2023-04-15T07:57:33;11.56;71.43
66019;HTU21D;52787;51.084;5.816;2023-04-15T08:00:03;11.68;71.30
66019;HTU21D;52787;51.084;5.816;2023-04-15T08:02:30;11.78;70.60
66019;HTU21D;52787;51.084;5.816;2023-04-15T08:04:56;11.87;70.58
66019;HTU21D;52787;51.084;5.816;2023-04-15T08:07:23;11.99;70.25
66019;HTU21D;52787;51.084;5.816;2023-04-15T08:09:49;12.14;70.47
66019;HTU21D;52787;51.084;5.816;2023-04-15T08:12:16;12.28;69.67
66019;HTU21D;52787;51.084;5.816;2023-04-15T08:14:42;12.44;69.40
66019;HTU21D;52787;51.084;5.816;2023-04-15T08:17:07;12.57;69.18
66019;HTU21D;52787;51.084;5.816;2023-04-15T08:19:33;12.73;68.68
66019;HTU21D;52787;51.084;5.816;2023-04-15T08:22:00;12.93;67.69
66019;HTU21D;52787;51.084;5.816;2023-04-15T08:24:25;13.14;67.04
66019;HTU21D;52787;51.084;5.816;2023-04-15T08:26:52;13.32;66.53
66019;HTU21D;52787;51.084;5.816;2023-04-15T08:29:18;13.48;64.90
66019;HTU21D;52787;51.084;5.816;2023-04-15T08:31:43;13.56;65.04
66019;HTU21D;52787;51.084;5.816;2023-04-15T08:34:13;13.65;64.17
66019;HTU21D;52787;51.084;5.816;2023-04-15T08:36:39;13.74;62.42
66019;HTU21D;52787;51.084;5.816;2023-04-15T08:39:06;13.85;61.51
66019;HTU21D;52787;51.084;5.816;2023-04-15T08:41:39;13.97;60.86
66019;HTU21D;52787;51.084;5.816;2023-04-15T08:44:13;14.07;60.71
66019;HTU21D;52787;51.084;5.816;2023-04-15T08:46:40;14.17;59.90
66019;HTU21D;52787;51.084;5.816;2023-04-15T08:49:11;14.19;59.64
66019;HTU21D;52787;51.084;5.816;2023-04-15T08:51:39;14.25;59.96
66019;HTU21D;52787;51.084;5.816;2023-04-15T08:54:07;14.32;59.64
66019;HTU21D;52787;51.084;5.816;2023-04-15T08:56:34;14.33;58.89
66019;HTU21D;52787;51.084;5.816;2023-04-15T08:59:02;14.33;59.62
66019;HTU21D;52787;51.084;5.816;2023-04-15T09:01:28;14.37;59.80
66019;HTU21D;52787;51.084;5.816;2023-04-15T09:03:55;14.35;58.17
66019;HTU21D;52787;51.084;5.816;2023-04-15T09:06:22;14.29;59.34
66019;HTU21D;52787;51.084;5.816;2023-04-15T09:08:51;14.37;59.90
66019;HTU21D;52787;51.084;5.816;2023-04-15T09:11:18;14.33;59.64
66019;HTU21D;52787;51.084;5.816;2023-04-15T09:13:44;14.30;59.70
66019;HTU21D;52787;51.084;5.816;2023-04-15T09:16:13;14.38;60.40
66019;HTU21D;52787;51.084;5.816;2023-04-15T09:18:40;14.51;60.25
66019;HTU21D;52787;51.084;5.816;2023-04-15T09:21:08;14.73;58.78
66019;HTU21D;52787;51.084;5.816;2023-04-15T09:23:40;14.89;57.32
66019;HTU21D;52787;51.084;5.816;2023-04-15T09:26:18;14.92;57.44
66019;HTU21D;52787;51.084;5.816;2023-04-15T09:28:44;14.89;57.48
66019;HTU21D;52787;51.084;5.816;2023-04-15T09:31:10;14.93;57.16
66019;HTU21D;52787;51.084;5.816;2023-04-15T09:33:53;14.99;56.87
66019;HTU21D;52787;51.084;5.816;2023-04-15T09:36:22;15.12;55.15
66019;HTU21D;52787;51.084;5.816;2023-04-15T09:38:56;15.38;55.63
66019;HTU21D;52787;51.084;5.816;2023-04-15T09:41:31;15.74;55.33
66019;HTU21D;52787;51.084;5.816;2023-04-15T09:43:58;15.98;53.62
66019;HTU21D;52787;51.084;5.816;2023-04-15T09:46:43;16.05;50.93
66019;HTU21D;52787;51.084;5.816;2023-04-15T09:49:10;15.99;51.83
66019;HTU21D;52787;51.084;5.816;2023-04-15T09:51:37;16.17;52.33
66019;HTU21D;52787;51.084;5.816;2023-04-15T09:54:04;16.42;51.25
66019;HTU21D;52787;51.084;5.816;2023-04-15T09:56:34;16.65;51.49
66019;HTU21D;52787;51.084;5.816;2023-04-15T09:59:07;16.92;50.95
66019;HTU21D;52787;51.084;5.816;2023-04-15T10:01:34;17.19;50.35
66019;HTU21D;52787;51.084;5.816;2023-04-15T10:04:03;17.30;49.02
66019;HTU21D;52787;51.084;5.816;2023-04-15T10:06:30;17.26;48.86
66019;HTU21D;52787;51.084;5.816;2023-04-15T10:08:57;17.20;48.46
66019;HTU21D;52787;51.084;5.816;2023-04-15T10:11:24;17.16;48.45
66019;HTU21D;52787;51.084;5.816;2023-04-15T10:13:55;17.19;48.44
66019;HTU21D;52787;51.084;5.816;2023-04-15T10:16:26;17.20;47.23
66019;HTU21D;52787;51.084;5.816;2023-04-15T10:18:56;16.96;46.62
66019;HTU21D;52787;51.084;5.816;2023-04-15T10:21:23;17.07;48.29
66019;HTU21D;52787;51.084;5.816;2023-04-15T10:23:49;17.37;47.41
66019;HTU21D;52787;51.084;5.816;2023-04-15T10:26:16;17.67;46.99
66019;HTU21D;52787;51.084;5.816;2023-04-15T10:28:43;18.10;45.80
66019;HTU21D;52787;51.084;5.816;2023-04-15T10:31:11;19.01;42.35
66019;HTU21D;52787;51.084;5.816;2023-04-15T10:33:41;20.00;39.71
66019;HTU21D;52787;51.084;5.816;2023-04-15T10:36:07;20.79;38.20
66019;HTU21D;52787;51.084;5.816;2023-04-15T10:38:39;21.46;36.32
66019;HTU21D;52787;51.084;5.816;2023-04-15T10:41:21;22.16;34.43
66019;HTU21D;52787;51.084;5.816;2023-04-15T10:43:59;23.03;33.39
66019;HTU21D;52787;51.084;5.816;2023-04-15T10:46:43;24.30;31.77
66019;HTU21D;52787;51.084;5.816;2023-04-15T10:49:10;25.20;30.02
66019;HTU21D;52787;51.084;5.816;2023-04-15T10:51:39;25.54;28.69
66019;HTU21D;52787;51.084;5.816;2023-04-15T10:54:15;25.74;28.23
66019;HTU21D;52787;51.084;5.816;2023-04-15T10:56:50;25.77;28.50
66019;HTU21D;52787;51.084;5.816;2023-04-15T10:59:18;25.81;27.68
66019;HTU21D;52787;51.084;5.816;2023-04-15T11:01:56;25.93;26.97
66019;HTU21D;52787;51.084;5.816;2023-04-15T11:04:50;26.16;26.19
66019;HTU21D;52787;51.084;5.816;2023-04-15T11:07:36;26.15;26.70
66019;HTU21D;52787;51.084;5.816;2023-04-15T11:12:38;25.54;26.88
66019;HTU21D;52787;51.084;5.816;2023-04-15T11:17:50;24.25;28.35
66019;HTU21D;52787;51.084;5.816;2023-04-15T11:20:16;23.79;30.32
66019;HTU21D;52787;51.084;5.816;2023-04-15T11:22:53;23.31;31.19
66019;HTU21D;52787;51.084;5.816;2023-04-15T11:25:27;23.41;31.30
66019;HTU21D;52787;51.084;5.816;2023-04-15T11:27:55;23.44;31.06
66019;HTU21D;52787;51.084;5.816;2023-04-15T11:30:25;23.07;31.65
66019;HTU21D;52787;51.084;5.816;2023-04-15T11:33:01;22.70;33.02
66019;HTU21D;52787;51.084;5.816;2023-04-15T11:35:32;22.57;33.67
66019;HTU21D;52787;51.084;5.816;2023-04-15T11:38:04;22.99;33.31
66019;HTU21D;52787;51.084;5.816;2023-04-15T11:40:33;23.26;32.33
66019;HTU21D;52787;51.084;5.816;2023-04-15T11:43:07;22.76;32.31
66019;HTU21D;52787;51.084;5.816;2023-04-15T11:48:25;21.29;34.92
66019;HTU21D;52787;51.084;5.816;2023-04-15T11:50:58;20.99;36.14
66019;HTU21D;52787;51.084;5.816;2023-04-15T11:53:38;21.23;37.00
66019;HTU21D;52787;51.084;5.816;2023-04-15T11:56:08;22.04;34.81
66019;HTU21D;52787;51.084;5.816;2023-04-15T11:58:36;22.09;33.58
66019;HTU21D;52787;51.084;5.816;2023-04-15T12:01:04;21.82;34.39
66019;HTU21D;52787;51.084;5.816;2023-04-15T12:03:36;22.26;34.78
66019;HTU21D;52787;51.084;5.816;2023-04-15T12:08:55;23.17;33.07
66019;HTU21D;52787;51.084;5.816;2023-04-15T12:16:48;21.07;38.14
66019;HTU21D;52787;51.084;5.816;2023-04-15T12:19:30;20.85;38.35
66019;HTU21D;52787;51.084;5.816;2023-04-15T12:24:33;20.77;39.39
66019;HTU21D;52787;51.084;5.816;2023-04-15T12:27:06;20.96;39.59
66019;HTU21D;52787;51.084;5.816;2023-04-15T12:29:35;21.38;38.52
66019;HTU21D;52787;51.084;5.816;2023-04-15T12:32:08;21.83;36.97
66019;HTU21D;52787;51.084;5.816;2023-04-15T12:34:38;22.17;36.08
66019;HTU21D;52787;51.084;5.816;2023-04-15T12:37:10;22.33;35.72
66019;HTU21D;52787;51.084;5.816;2023-04-15T12:39:40;22.53;35.36
66019;HTU21D;52787;51.084;5.816;2023-04-15T12:42:08;22.73;34.91
66019;HTU21D;52787;51.084;5.816;2023-04-15T12:44:36;22.96;33.74
66019;HTU21D;52787;51.084;5.816;2023-04-15T12:47:03;23.11;33.31
66019;HTU21D;52787;51.084;5.816;2023-04-15T12:49:31;22.96;33.73
66019;HTU21D;52787;51.084;5.816;2023-04-15T12:51:58;22.77;34.75
66019;HTU21D;52787;51.084;5.816;2023-04-15T12:54:25;22.65;33.40
66019;HTU21D;52787;51.084;5.816;2023-04-15T12:56:53;22.65;33.34
66019;HTU21D;52787;51.084;5.816;2023-04-15T12:59:19;22.90;33.49
66019;HTU21D;52787;51.084;5.816;2023-04-15T13:01:46;23.26;33.00
66019;HTU21D;52787;51.084;5.816;2023-04-15T13:04:13;23.47;32.63
66019;HTU21D;52787;51.084;5.816;2023-04-15T13:06:39;23.58;32.61
66019;HTU21D;52787;51.084;5.816;2023-04-15T13:09:06;23.49;32.12
66019;HTU21D;52787;51.084;5.816;2023-04-15T13:11:32;23.05;32.79
66019;HTU21D;52787;51.084;5.816;2023-04-15T13:14:03;22.56;34.06
66019;HTU21D;52787;51.084;5.816;2023-04-15T13:16:30;22.23;34.40
66019;HTU21D;52787;51.084;5.816;2023-04-15T13:19:01;22.29;34.38
66019;HTU21D;52787;51.084;5.816;2023-04-15T13:21:29;22.47;34.73
66019;HTU21D;52787;51.084;5.816;2023-04-15T13:23:59;22.18;34.98
66019;HTU21D;52787;51.084;5.816;2023-04-15T13:26:25;21.78;35.98
66019;HTU21D;52787;51.084;5.816;2023-04-15T13:28:52;21.75;35.69
66019;HTU21D;52787;51.084;5.816;2023-04-15T13:31:18;21.85;35.92
66019;HTU21D;52787;51.084;5.816;2023-04-15T13:33:43;23.15;33.62
66019;HTU21D;52787;51.084;5.816;2023-04-15T13:36:09;24.06;31.47
66019;HTU21D;52787;51.084;5.816;2023-04-15T13:38:35;24.24;30.82
66019;HTU21D;52787;51.084;5.816;2023-04-15T13:41:01;24.12;30.32
66019;HTU21D;52787;51.084;5.816;2023-04-15T13:43:26;23.90;31.05
66019;HTU21D;52787;51.084;5.816;2023-04-15T13:45:52;23.52;30.68
66019;HTU21D;52787;51.084;5.816;2023-04-15T13:48:18;23.03;31.69
66019;HTU21D;52787;51.084;5.816;2023-04-15T13:50:44;22.63;32.83
66019;HTU21D;52787;51.084;5.816;2023-04-15T13:53:11;22.23;33.50
66019;HTU21D;52787;51.084;5.816;2023-04-15T13:55:37;21.98;34.38
66019;HTU21D;52787;51.084;5.816;2023-04-15T13:58:07;22.92;33.87
66019;HTU21D;52787;51.084;5.816;2023-04-15T14:00:33;23.60;31.98
66019;HTU21D;52787;51.084;5.816;2023-04-15T14:02:59;23.28;32.45
66019;HTU21D;52787;51.084;5.816;2023-04-15T14:05:25;23.31;32.77
66019;HTU21D;52787;51.084;5.816;2023-04-15T14:07:51;23.96;32.42
66019;HTU21D;52787;51.084;5.816;2023-04-15T14:10:16;25.28;29.94
66019;HTU21D;52787;51.084;5.816;2023-04-15T14:12:42;26.73;27.58
66019;HTU21D;52787;51.084;5.816;2023-04-15T14:15:08;26.43;26.45
66019;HTU21D;52787;51.084;5.816;2023-04-15T14:17:34;24.80;27.78
66019;HTU21D;52787;51.084;5.816;2023-04-15T14:20:00;23.28;31.48
66019;HTU21D;52787;51.084;5.816;2023-04-15T14:22:26;22.23;34.21
66019;HTU21D;52787;51.084;5.816;2023-04-15T14:24:51;21.31;36.60
66019;HTU21D;52787;51.084;5.816;2023-04-15T14:27:19;21.15;36.64
66019;HTU21D;52787;51.084;5.816;2023-04-15T14:29:44;20.98;35.67
66019;HTU21D;52787;51.084;5.816;2023-04-15T14:32:10;20.35;36.80
66019;HTU21D;52787;51.084;5.816;2023-04-15T14:34:36;19.69;39.30
66019;HTU21D;52787;51.084;5.816;2023-04-15T14:37:02;19.76;39.85
66019;HTU21D;52787;51.084;5.816;2023-04-15T14:39:28;19.90;38.03
66019;HTU21D;52787;51.084;5.816;2023-04-15T14:41:54;19.68;38.90
66019;HTU21D;52787;51.084;5.816;2023-04-15T14:44:20;19.68;40.12
66019;HTU21D;52787;51.084;5.816;2023-04-15T14:46:46;20.27;36.56
66019;HTU21D;52787;51.084;5.816;2023-04-15T14:49:12;20.10;38.40
66019;HTU21D;52787;51.084;5.816;2023-04-15T14:51:38;19.69;39.07
66019;HTU21D;52787;51.084;5.816;2023-04-15T14:54:04;19.37;40.64
66019;HTU21D;52787;51.084;5.816;2023-04-15T14:56:29;19.08;40.65
66019;HTU21D;52787;51.084;5.816;2023-04-15T14:58:56;19.03;41.17
66019;HTU21D;52787;51.084;5.816;2023-04-15T15:01:22;19.40;40.53
66019;HTU21D;52787;51.084;5.816;2023-04-15T15:03:48;19.38;38.40
66019;HTU21D;52787;51.084;5.816;2023-04-15T15:06:14;19.21;39.63
66019;HTU21D;52787;51.084;5.816;2023-04-15T15:08:40;19.05;40.47
66019;HTU21D;52787;51.084;5.816;2023-04-15T15:11:06;18.83;42.20
66019;HTU21D;52787;51.084;5.816;2023-04-15T15:13:31;18.67;41.52
66019;HTU21D;52787;51.084;5.816;2023-04-15T15:15:57;18.33;41.45
66019;HTU21D;52787;51.084;5.816;2023-04-15T15:18:23;18.12;43.51
66019;HTU21D;52787;51.084;5.816;2023-04-15T15:20:50;18.11;43.55
66019;HTU21D;52787;51.084;5.816;2023-04-15T15:23:15;18.09;44.08
66019;HTU21D;52787;51.084;5.816;2023-04-15T15:25:42;17.99;44.51
66019;HTU21D;52787;51.084;5.816;2023-04-15T15:28:08;18.12;44.59
66019;HTU21D;52787;51.084;5.816;2023-04-15T15:30:34;18.58;43.19
66019;HTU21D;52787;51.084;5.816;2023-04-15T15:33:00;19.24;41.78
66019;HTU21D;52787;51.084;5.816;2023-04-15T15:35:26;19.52;40.77
66019;HTU21D;52787;51.084;5.816;2023-04-15T15:37:52;19.24;40.62
66019;HTU21D;52787;51.084;5.816;2023-04-15T15:40:19;19.13;42.13